JES weather

Jesup Wayne County Airport
Jesup, Georgia, United States

Public forecast

Using degrees Fahrenheit for public forecast. Weather courtesy of forecast.io.

METAR (pilot weather report)

Retrieved 2019/08/19 20:41 UTC (0 seconds ago):

KJES 192041Z AUTO 21005KT 10SM CLR 30/22 A3004 RMK AO2

TAF (pilot weather forecast)

Closest forecast is St Simons Island Airport, 34.9 nm (64.6 km) SE. Retrieved 2019/08/19 18:30 UTC (2 hours ago):

TAF KSSI 191727Z 1918/2018 17010KT P6SM VCTS SCT040CB BKN100 TEMPO 1918/1920 4SM SHRA BKN030 FM200300 18005KT P6SM BKN250 FM201500 15007KT P6SM BKN250